createdAt,value
2019-04-30T00:00:15.853Z,99.99
2019-04-30T00:01:17.040Z,99.99
2019-04-30T00:02:15.739Z,99.99
2019-04-30T00:03:15.950Z,99.99
2019-04-30T00:04:15.644Z,99.99
2019-04-30T00:05:15.171Z,99.99
2019-04-30T00:06:15.587Z,99.99
2019-04-30T00:07:15.493Z,99.99
2019-04-30T00:08:15.895Z,99.99
2019-04-30T00:09:15.138Z,99.99
2019-04-30T00:10:15.379Z,99.99
2019-04-30T00:11:15.920Z,99.99
2019-04-30T00:12:15.555Z,99.99
2019-04-30T00:13:17.828Z,99.99
2019-04-30T00:14:15.271Z,99.99
2019-04-30T00:15:17.913Z,99.99
2019-04-30T00:16:15.245Z,99.99
2019-04-30T00:17:15.855Z,99.99
2019-04-30T00:18:15.428Z,99.99
2019-04-30T00:19:15.726Z,99.99
2019-04-30T00:20:15.144Z,99.99
2019-04-30T00:21:17.142Z,99.99
2019-04-30T00:22:13.449Z,99.99
2019-04-30T00:23:12.436Z,99.99
2019-04-30T00:24:12.456Z,99.99
2019-04-30T00:25:12.436Z,99.99
2019-04-30T00:26:12.416Z,99.99
2019-04-30T00:27:12.414Z,99.99
2019-04-30T00:28:12.374Z,99.99
2019-04-30T00:29:12.380Z,99.99
2019-04-30T00:30:12.397Z,99.99
2019-04-30T00:31:12.381Z,99.99
2019-04-30T00:32:12.342Z,99.99
2019-04-30T00:33:15.206Z,99.99
2019-04-30T00:34:15.166Z,99.99
2019-04-30T00:35:16.228Z,99.99
2019-04-30T00:36:14.847Z,99.99
2019-04-30T00:37:13.891Z,99.99
2019-04-30T00:38:12.284Z,99.99
2019-04-30T00:39:13.217Z,99.99
2019-04-30T00:40:12.289Z,99.99
2019-04-30T00:41:12.248Z,99.99
2019-04-30T00:42:12.239Z,99.99
2019-04-30T00:43:12.237Z,99.99
2019-04-30T00:44:12.236Z,99.99
2019-04-30T00:45:12.215Z,99.99
2019-04-30T00:46:12.205Z,99.99
2019-04-30T00:47:12.186Z,99.99
2019-04-30T00:48:12.178Z,99.99
2019-04-30T00:49:18.550Z,99.99
2019-04-30T00:50:14.858Z,99.99
2019-04-30T00:51:18.156Z,99.99
2019-04-30T00:52:15.228Z,99.99
2019-04-30T00:53:14.029Z,99.99
2019-04-30T00:54:12.114Z,99.99
2019-04-30T00:55:12.125Z,99.99
2019-04-30T00:56:12.104Z,99.99
2019-04-30T00:57:12.074Z,99.99
2019-04-30T00:58:12.053Z,99.99
2019-04-30T00:59:12.051Z,99.99
2019-04-30T01:00:12.054Z,99.99
2019-04-30T01:01:12.059Z,99.99
2019-04-30T01:02:12.042Z,99.99
2019-04-30T01:03:12.012Z,99.99
2019-04-30T01:04:12.002Z,99.99
2019-04-30T01:05:11.982Z,99.99
2019-04-30T01:06:11.981Z,99.99
2019-04-30T01:07:11.987Z,99.99
2019-04-30T01:08:11.972Z,99.99
2019-04-30T01:09:11.946Z,99.99
2019-04-30T01:10:11.951Z,99.99
2019-04-30T01:11:11.929Z,99.99
2019-04-30T01:12:11.921Z,99.99
2019-04-30T01:13:12.180Z,99.99
2019-04-30T01:14:11.894Z,99.99
2019-04-30T01:15:14.415Z,99.99
2019-04-30T01:16:11.879Z,99.99
2019-04-30T01:17:12.361Z,99.99
2019-04-30T01:18:11.857Z,99.99
2019-04-30T01:19:26.637Z,99.99
2019-04-30T01:20:12.809Z,99.99
2019-04-30T01:21:11.827Z,99.99
2019-04-30T01:22:11.825Z,99.99
2019-04-30T01:23:11.811Z,99.99
2019-04-30T01:24:11.785Z,99.99
2019-04-30T01:25:13.494Z,99.99
2019-04-30T01:26:11.761Z,99.99
2019-04-30T01:27:11.743Z,99.99
2019-04-30T01:28:16.152Z,99.99
2019-04-30T01:29:12.725Z,99.99
2019-04-30T01:30:13.414Z,99.99
2019-04-30T01:31:12.723Z,99.99
2019-04-30T01:32:17.562Z,99.99
2019-04-30T01:33:12.729Z,99.99
2019-04-30T01:34:14.078Z,99.99
2019-04-30T01:35:11.671Z,99.99
2019-04-30T01:36:13.314Z,99.99
2019-04-30T01:37:11.653Z,99.99
2019-04-30T01:38:12.824Z,99.99
2019-04-30T01:39:11.651Z,99.99
2019-04-30T01:40:13.936Z,99.99
2019-04-30T01:41:11.599Z,99.99
2019-04-30T01:42:11.603Z,99.99
2019-04-30T01:43:11.599Z,99.99
2019-04-30T01:44:12.166Z,99.99
2019-04-30T01:45:11.549Z,99.99
2019-04-30T01:46:13.795Z,99.99
2019-04-30T01:47:11.539Z,99.99
2019-04-30T01:48:12.809Z,99.99
2019-04-30T01:49:11.549Z,99.99
2019-04-30T01:50:11.489Z,99.99
2019-04-30T01:51:13.469Z,99.99
2019-04-30T01:52:12.469Z,99.99
2019-04-30T01:53:13.241Z,99.99
2019-04-30T01:54:13.774Z,99.99
2019-04-30T01:55:12.447Z,99.99
2019-04-30T01:56:11.420Z,99.99
2019-04-30T01:57:11.437Z,99.99
2019-04-30T01:58:11.423Z,99.99
2019-04-30T01:59:11.435Z,99.99
2019-04-30T02:00:11.395Z,99.99
2019-04-30T02:01:11.391Z,99.99
2019-04-30T02:02:11.366Z,99.99
2019-04-30T02:03:11.397Z,99.99
2019-04-30T02:04:11.373Z,99.99
2019-04-30T02:05:11.377Z,99.99
2019-04-30T02:06:11.577Z,99.99
2019-04-30T02:07:11.305Z,99.99
2019-04-30T02:08:11.350Z,99.99
2019-04-30T02:09:11.311Z,99.99
2019-04-30T02:10:11.321Z,99.99
2019-04-30T02:11:11.280Z,99.99
2019-04-30T02:12:11.262Z,99.90
2019-04-30T02:13:11.286Z,99.80
2019-04-30T02:14:11.243Z,99.90
2019-04-30T02:15:11.238Z,99.80
2019-04-30T02:16:11.249Z,99.70
2019-04-30T02:17:11.249Z,99.80
2019-04-30T02:18:11.211Z,99.80
2019-04-30T02:19:11.191Z,99.85
2019-04-30T02:20:11.209Z,99.90
2019-04-30T02:21:11.459Z,99.99
2019-04-30T02:22:11.176Z,99.99
2019-04-30T02:23:11.167Z,99.99
2019-04-30T02:24:11.253Z,99.99
2019-04-30T02:25:11.130Z,99.99
2019-04-30T02:26:11.147Z,99.99
2019-04-30T02:27:11.116Z,99.95
2019-04-30T02:28:11.131Z,99.95
2019-04-30T02:29:11.082Z,99.74
2019-04-30T02:30:11.507Z,99.74
2019-04-30T02:31:11.105Z,99.64
2019-04-30T02:32:11.089Z,99.64
2019-04-30T02:33:11.063Z,99.64
2019-04-30T02:34:11.015Z,99.95
2019-04-30T02:35:11.014Z,99.99
2019-04-30T02:36:11.043Z,99.99
2019-04-30T02:37:11.003Z,99.99
2019-04-30T02:38:11.003Z,99.85
2019-04-30T02:39:11.309Z,99.85
2019-04-30T02:40:10.989Z,99.74
2019-04-30T02:41:10.963Z,99.85
2019-04-30T02:42:13.239Z,99.95
2019-04-30T02:43:10.997Z,99.74
2019-04-30T02:44:10.926Z,99.95
2019-04-30T02:45:10.936Z,99.95
2019-04-30T02:46:10.909Z,99.85
2019-04-30T02:47:10.939Z,99.64
2019-04-30T02:48:11.799Z,99.74
2019-04-30T02:49:10.913Z,99.85
2019-04-30T02:50:17.634Z,99.64
2019-04-30T02:51:11.845Z,99.64
2019-04-30T02:52:10.868Z,99.54
2019-04-30T02:53:10.836Z,99.54
2019-04-30T02:54:10.836Z,99.54
2019-04-30T02:55:10.796Z,99.54
2019-04-30T02:56:10.777Z,99.43
2019-04-30T02:57:11.721Z,99.64
2019-04-30T02:58:10.782Z,99.54
2019-04-30T02:59:10.819Z,99.64
2019-04-30T03:00:10.769Z,99.69
2019-04-30T03:01:10.741Z,99.79
2019-04-30T03:02:11.793Z,99.79
2019-04-30T03:03:10.732Z,99.95
2019-04-30T03:04:10.728Z,99.90
2019-04-30T03:05:13.701Z,99.99
2019-04-30T03:06:11.571Z,99.99
2019-04-30T03:07:10.702Z,99.99
2019-04-30T03:08:10.695Z,99.99
2019-04-30T03:09:11.005Z,99.99
2019-04-30T03:10:10.672Z,99.99
2019-04-30T03:11:10.632Z,99.99
2019-04-30T03:12:10.622Z,99.99
2019-04-30T03:13:10.651Z,99.99
2019-04-30T03:14:10.981Z,99.99
2019-04-30T03:15:10.626Z,99.99
2019-04-30T03:16:10.571Z,99.99
2019-04-30T03:17:10.560Z,99.99
2019-04-30T03:18:10.593Z,99.99
2019-04-30T03:19:10.556Z,99.99
2019-04-30T03:20:15.242Z,99.90
2019-04-30T03:21:11.535Z,99.99
2019-04-30T03:22:10.539Z,99.99
2019-04-30T03:23:10.548Z,99.90
2019-04-30T03:24:11.049Z,99.69
2019-04-30T03:25:10.487Z,99.48
2019-04-30T03:26:12.955Z,99.58
2019-04-30T03:27:10.457Z,99.38
2019-04-30T03:28:10.464Z,99.27
2019-04-30T03:29:11.568Z,99.32
2019-04-30T03:30:11.869Z,99.22
2019-04-30T03:31:12.462Z,99.11
2019-04-30T03:32:13.506Z,99.01
2019-04-30T03:33:12.862Z,99.11
2019-04-30T03:34:16.967Z,99.11
2019-04-30T03:35:12.686Z,99.01
2019-04-30T03:36:12.675Z,99.22
2019-04-30T03:37:10.356Z,98.91
2019-04-30T03:38:10.377Z,99.22
2019-04-30T03:39:11.129Z,99.11
2019-04-30T03:40:13.169Z,99.32
2019-04-30T03:41:10.319Z,99.22
2019-04-30T03:42:10.301Z,99.22
2019-04-30T03:43:10.483Z,99.22
2019-04-30T03:44:20.358Z,99.43
2019-04-30T03:45:11.289Z,99.32
2019-04-30T03:46:10.325Z,99.32
2019-04-30T03:47:10.852Z,99.11
2019-04-30T03:48:10.436Z,99.11
2019-04-30T03:49:13.179Z,98.80
2019-04-30T03:50:10.252Z,98.91
2019-04-30T03:51:10.732Z,98.70
2019-04-30T03:52:13.310Z,98.70
2019-04-30T03:53:10.554Z,98.91
2019-04-30T03:54:10.471Z,99.11
2019-04-30T03:55:10.197Z,99.43
2019-04-30T03:56:10.132Z,99.63
2019-04-30T03:57:10.848Z,99.73
2019-04-30T03:58:10.136Z,99.73
2019-04-30T03:59:10.889Z,99.94
2019-04-30T04:00:10.112Z,99.99
2019-04-30T04:01:10.376Z,99.99
2019-04-30T04:02:12.856Z,99.94
2019-04-30T04:03:10.305Z,99.11
2019-04-30T04:04:10.237Z,98.70
2019-04-30T04:05:10.301Z,98.65
2019-04-30T04:06:10.088Z,98.65
2019-04-30T04:07:10.338Z,98.85
2019-04-30T04:08:10.016Z,99.16
2019-04-30T04:09:10.373Z,99.11
2019-04-30T04:10:10.262Z,98.91
2019-04-30T04:11:10.178Z,98.85
2019-04-30T04:12:12.070Z,98.96
2019-04-30T04:13:10.426Z,98.85
2019-04-30T04:14:09.945Z,98.96
2019-04-30T04:15:10.619Z,99.06
2019-04-30T04:16:09.948Z,99.22
2019-04-30T04:17:09.979Z,99.43
2019-04-30T04:18:10.680Z,99.43
2019-04-30T04:19:09.919Z,99.22
2019-04-30T04:20:10.732Z,98.96
2019-04-30T04:21:16.487Z,99.11
2019-04-30T04:22:12.350Z,99.11
2019-04-30T04:23:09.866Z,99.01
2019-04-30T04:24:10.611Z,98.96
2019-04-30T04:25:13.179Z,99.22
2019-04-30T04:26:09.846Z,99.11
2019-04-30T04:27:09.841Z,98.91
2019-04-30T04:28:10.225Z,98.33
2019-04-30T04:29:12.428Z,98.65
2019-04-30T04:30:10.700Z,98.33
2019-04-30T04:31:09.776Z,98.75
2019-04-30T04:32:10.733Z,98.70
2019-04-30T04:33:10.237Z,98.60
2019-04-30T04:34:09.738Z,98.50
2019-04-30T04:35:12.732Z,97.61
2019-04-30T04:36:09.711Z,97.61
2019-04-30T04:37:10.162Z,97.92
2019-04-30T04:38:12.245Z,98.19
2019-04-30T04:39:09.908Z,97.88
2019-04-30T04:40:09.721Z,98.19
2019-04-30T04:41:10.337Z,98.29
2019-04-30T04:42:10.265Z,97.98
2019-04-30T04:43:10.434Z,98.08
2019-04-30T04:44:12.928Z,98.19
2019-04-30T04:45:10.082Z,98.19
2019-04-30T04:46:09.645Z,97.77
2019-04-30T04:47:11.918Z,97.47
2019-04-30T04:48:09.715Z,97.88
2019-04-30T04:49:09.595Z,97.82
2019-04-30T04:50:10.322Z,97.92
2019-04-30T04:51:27.228Z,97.61
2019-04-30T04:52:10.573Z,97.72
2019-04-30T04:53:11.486Z,98.44
2019-04-30T04:54:10.420Z,98.13
2019-04-30T04:55:10.218Z,97.98
2019-04-30T04:56:10.118Z,98.08
2019-04-30T04:57:17.693Z,98.29
2019-04-30T04:58:12.824Z,98.08
2019-04-30T04:59:10.269Z,98.19
2019-04-30T05:00:10.587Z,98.08
2019-04-30T05:01:11.907Z,98.08
2019-04-30T05:02:09.935Z,97.88
2019-04-30T05:03:09.578Z,97.16
2019-04-30T05:04:11.862Z,97.36
2019-04-30T05:05:09.736Z,96.84
2019-04-30T05:06:11.725Z,96.23
2019-04-30T05:07:09.426Z,96.64
2019-04-30T05:08:09.374Z,96.74
2019-04-30T05:09:09.819Z,96.84
2019-04-30T05:10:09.455Z,96.53
2019-04-30T05:11:09.616Z,95.98
2019-04-30T05:12:09.353Z,95.71
2019-04-30T05:13:09.410Z,95.92
2019-04-30T05:14:10.937Z,95.92
2019-04-30T05:15:09.679Z,95.09
2019-04-30T05:16:09.363Z,95.09
2019-04-30T05:17:09.874Z,95.81
2019-04-30T05:18:09.290Z,96.33
2019-04-30T05:19:09.267Z,95.92
2019-04-30T05:20:09.977Z,96.64
2019-04-30T05:21:09.248Z,97.26
2019-04-30T05:22:09.287Z,97.16
2019-04-30T05:23:09.514Z,96.84
2019-04-30T05:24:09.202Z,96.95
2019-04-30T05:25:09.209Z,96.64
2019-04-30T05:26:11.032Z,97.05
2019-04-30T05:27:09.254Z,97.56
2019-04-30T05:28:09.168Z,97.47
2019-04-30T05:29:09.555Z,97.56
2019-04-30T05:30:09.735Z,97.47
2019-04-30T05:31:09.121Z,96.95
2019-04-30T05:32:09.479Z,96.74
2019-04-30T05:33:09.116Z,96.74
2019-04-30T05:34:10.330Z,97.16
2019-04-30T05:35:09.532Z,97.16
2019-04-30T05:36:09.392Z,96.95
2019-04-30T05:37:09.106Z,96.44
2019-04-30T05:38:09.409Z,97.05
2019-04-30T05:39:09.044Z,96.84
2019-04-30T05:40:09.345Z,96.74
2019-04-30T05:41:09.411Z,96.44
2019-04-30T05:42:09.011Z,96.12
2019-04-30T05:43:11.239Z,96.02
2019-04-30T05:44:09.181Z,96.44
2019-04-30T05:45:09.481Z,96.23
2019-04-30T05:46:11.028Z,96.23
2019-04-30T05:47:09.384Z,96.33
2019-04-30T05:48:08.989Z,96.53
2019-04-30T05:49:09.074Z,96.84
2019-04-30T05:50:09.278Z,97.31
2019-04-30T05:51:09.071Z,96.18
2019-04-30T05:52:09.141Z,95.98
2019-04-30T05:53:09.096Z,95.98
2019-04-30T05:54:09.156Z,95.77
2019-04-30T05:55:08.907Z,96.18
2019-04-30T05:56:09.396Z,96.18
2019-04-30T05:57:09.544Z,95.73
2019-04-30T05:58:09.371Z,95.25
2019-04-30T05:59:09.055Z,94.95
2019-04-30T06:00:10.013Z,95.05
2019-04-30T06:01:09.687Z,95.71
2019-04-30T06:02:11.296Z,96.39
2019-04-30T06:03:09.422Z,95.50
2019-04-30T06:04:09.512Z,96.02
2019-04-30T06:05:08.883Z,95.92
2019-04-30T06:06:11.304Z,95.87
2019-04-30T06:07:08.785Z,95.15
2019-04-30T06:08:09.281Z,95.56
2019-04-30T06:09:14.816Z,95.46
2019-04-30T06:10:09.745Z,95.98
2019-04-30T06:11:09.399Z,95.87
2019-04-30T06:12:11.233Z,94.84
2019-04-30T06:13:09.184Z,95.56
2019-04-30T06:14:08.739Z,94.95
2019-04-30T06:15:09.055Z,95.77
2019-04-30T06:16:08.854Z,95.56
2019-04-30T06:17:09.747Z,95.67
2019-04-30T06:18:13.424Z,94.95
2019-04-30T06:19:09.631Z,95.15
2019-04-30T06:20:17.782Z,95.25
2019-04-30T06:21:09.601Z,94.95
2019-04-30T06:22:10.792Z,94.23
2019-04-30T06:23:09.584Z,94.12
2019-04-30T06:24:10.686Z,95.56
2019-04-30T06:25:10.842Z,95.15
2019-04-30T06:26:10.694Z,94.12
2019-04-30T06:27:10.598Z,93.60
2019-04-30T06:28:09.718Z,94.70
2019-04-30T06:29:09.201Z,93.50
2019-04-30T06:30:11.820Z,93.40
2019-04-30T06:31:09.117Z,93.81
2019-04-30T06:32:08.737Z,93.50
2019-04-30T06:33:09.318Z,93.60
2019-04-30T06:34:08.623Z,93.66
2019-04-30T06:35:09.160Z,93.87
2019-04-30T06:36:08.606Z,93.50
2019-04-30T06:37:09.642Z,94.28
2019-04-30T06:38:08.662Z,94.90
2019-04-30T06:39:08.709Z,95.21
2019-04-30T06:40:09.431Z,94.08
2019-04-30T06:41:08.683Z,93.87
2019-04-30T06:42:12.668Z,95.00
2019-04-30T06:43:09.138Z,94.49
2019-04-30T06:44:09.673Z,93.87
2019-04-30T06:45:09.161Z,94.28
2019-04-30T06:46:08.814Z,94.96
2019-04-30T06:47:09.083Z,94.55
2019-04-30T06:48:08.935Z,93.52
2019-04-30T06:49:09.480Z,93.62
2019-04-30T06:50:09.715Z,94.34
2019-04-30T06:51:09.075Z,93.88
2019-04-30T06:52:19.569Z,93.16
2019-04-30T06:53:09.534Z,91.62
2019-04-30T06:54:08.543Z,93.06
2019-04-30T06:55:09.458Z,92.03
2019-04-30T06:56:08.945Z,92.76
2019-04-30T06:57:11.805Z,91.93
2019-04-30T06:58:14.716Z,92.14
2019-04-30T06:59:09.285Z,92.20
2019-04-30T07:00:09.881Z,92.71
2019-04-30T07:01:09.486Z,91.00
2019-04-30T07:02:09.088Z,91.93
2019-04-30T07:03:09.573Z,91.89
2019-04-30T07:04:08.139Z,91.58
2019-04-30T07:05:09.957Z,91.52
2019-04-30T07:06:08.473Z,91.52
2019-04-30T07:07:09.109Z,91.52
2019-04-30T07:08:09.858Z,92.55
2019-04-30T07:09:08.819Z,92.44
2019-04-30T07:10:10.098Z,91.93
2019-04-30T07:11:11.185Z,91.83
2019-04-30T07:12:09.075Z,92.96
2019-04-30T07:13:08.765Z,93.23
2019-04-30T07:14:09.625Z,92.30
2019-04-30T07:15:08.689Z,91.89
2019-04-30T07:16:08.335Z,91.89
2019-04-30T07:17:09.493Z,91.68
2019-04-30T07:18:09.078Z,90.34
2019-04-30T07:19:09.322Z,89.69
2019-04-30T07:20:07.976Z,90.00
2019-04-30T07:21:08.738Z,89.79
2019-04-30T07:22:09.098Z,90.03
2019-04-30T07:23:09.345Z,90.24
2019-04-30T07:24:09.370Z,91.23
2019-04-30T07:25:09.522Z,90.72
2019-04-30T07:26:09.041Z,91.19
2019-04-30T07:27:09.390Z,88.92
2019-04-30T07:28:09.067Z,88.96
2019-04-30T07:29:09.557Z,89.89
2019-04-30T07:30:10.032Z,90.72
2019-04-30T07:31:14.052Z,91.74
2019-04-30T07:32:09.402Z,90.67
2019-04-30T07:33:09.521Z,90.36
2019-04-30T07:34:09.293Z,90.47
2019-04-30T07:35:09.569Z,90.63
2019-04-30T07:36:09.601Z,89.19
2019-04-30T07:37:16.315Z,89.50
2019-04-30T07:38:09.434Z,90.01
2019-04-30T07:39:09.996Z,88.72
2019-04-30T07:40:09.115Z,88.98
2019-04-30T07:41:09.600Z,88.57
2019-04-30T07:42:09.247Z,89.29
2019-04-30T07:43:09.070Z,89.91
2019-04-30T07:44:10.766Z,89.64
2019-04-30T07:45:09.660Z,89.23
2019-04-30T07:46:09.285Z,90.36
2019-04-30T07:47:15.507Z,89.44
2019-04-30T07:48:09.341Z,90.22
2019-04-30T07:49:09.907Z,88.68
2019-04-30T07:50:10.291Z,89.19
2019-04-30T07:51:10.350Z,89.09
2019-04-30T07:52:10.831Z,89.60
2019-04-30T07:53:10.595Z,87.82
2019-04-30T07:54:09.158Z,87.10
2019-04-30T07:55:09.651Z,87.46
2019-04-30T07:56:23.520Z,87.53
2019-04-30T07:57:09.495Z,86.46
2019-04-30T07:58:09.007Z,84.68
2019-04-30T07:59:10.864Z,83.96
2019-04-30T08:00:09.549Z,84.20
2019-04-30T08:01:10.324Z,86.09
2019-04-30T08:02:14.322Z,85.31
2019-04-30T08:03:10.772Z,86.85
2019-04-30T08:04:08.828Z,88.70
2019-04-30T08:05:10.337Z,87.16
2019-04-30T08:06:10.070Z,88.29
2019-04-30T08:07:09.514Z,88.08
2019-04-30T08:08:20.241Z,86.95
2019-04-30T08:09:10.316Z,87.98
2019-04-30T08:10:08.725Z,87.32
2019-04-30T08:11:09.238Z,87.22
2019-04-30T08:12:09.367Z,87.32
2019-04-30T08:13:13.771Z,85.78
2019-04-30T08:14:09.822Z,85.93
2019-04-30T08:15:09.487Z,86.54
2019-04-30T08:16:07.364Z,86.71
2019-04-30T08:17:08.862Z,85.85
2019-04-30T08:18:08.708Z,84.61
2019-04-30T08:19:09.020Z,84.47
2019-04-30T08:20:08.719Z,84.74
2019-04-30T08:21:09.472Z,83.82
2019-04-30T08:22:09.502Z,83.10
2019-04-30T08:23:20.193Z,84.12
2019-04-30T08:24:09.235Z,84.99
2019-04-30T08:25:07.254Z,82.63
2019-04-30T08:26:08.862Z,82.60
2019-04-30T08:27:09.572Z,85.78
2019-04-30T08:28:08.965Z,85.68
2019-04-30T08:29:07.214Z,86.36
2019-04-30T08:30:20.658Z,84.06
2019-04-30T08:31:08.994Z,82.73
2019-04-30T08:32:09.019Z,82.53
2019-04-30T08:33:09.296Z,82.83
2019-04-30T08:34:10.701Z,83.04
2019-04-30T08:35:07.162Z,84.17
2019-04-30T08:36:07.144Z,83.82
2019-04-30T08:37:15.314Z,85.09
2019-04-30T08:38:10.575Z,84.58
2019-04-30T08:39:07.111Z,84.47
2019-04-30T08:40:08.690Z,85.46
2019-04-30T08:41:08.859Z,83.51
2019-04-30T08:42:08.878Z,83.00
2019-04-30T08:43:07.059Z,85.39
2019-04-30T08:44:07.040Z,84.99
2019-04-30T08:45:07.026Z,85.15
2019-04-30T08:46:07.003Z,83.72
2019-04-30T08:47:08.639Z,84.74
2019-04-30T08:48:08.987Z,84.84
2019-04-30T08:49:09.365Z,85.30
2019-04-30T08:50:07.013Z,85.36
2019-04-30T08:51:08.973Z,83.34
2019-04-30T08:52:06.973Z,84.10
2019-04-30T08:53:06.937Z,85.71
2019-04-30T08:54:06.947Z,84.88
2019-04-30T08:55:14.203Z,84.58
2019-04-30T08:56:09.625Z,85.46
2019-04-30T08:57:08.512Z,85.87
2019-04-30T08:58:12.025Z,85.56
2019-04-30T08:59:08.742Z,85.31
2019-04-30T09:00:06.856Z,84.91
2019-04-30T09:01:08.649Z,84.74
2019-04-30T09:02:15.234Z,85.30
2019-04-30T09:03:09.386Z,85.15
2019-04-30T09:04:07.723Z,84.47
2019-04-30T09:05:06.812Z,84.74
2019-04-30T09:06:06.799Z,84.70
2019-04-30T09:07:10.121Z,84.05
2019-04-30T09:08:06.777Z,83.50
2019-04-30T09:09:06.785Z,81.04
2019-04-30T09:10:06.754Z,82.17
2019-04-30T09:11:19.849Z,80.22
2019-04-30T09:12:09.829Z,83.39
2019-04-30T09:13:06.719Z,82.89
2019-04-30T09:14:08.497Z,81.96
2019-04-30T09:15:06.693Z,80.53
2019-04-30T09:16:06.692Z,81.38
2019-04-30T09:17:06.675Z,83.64
2019-04-30T09:18:11.714Z,83.09
2019-04-30T09:19:09.636Z,81.38
2019-04-30T09:20:06.633Z,83.03
2019-04-30T09:21:08.860Z,82.68
2019-04-30T09:22:14.440Z,82.27
2019-04-30T09:23:10.968Z,83.05
2019-04-30T09:24:06.605Z,81.79
2019-04-30T09:25:06.604Z,80.62
2019-04-30T09:26:08.549Z,79.09
2019-04-30T09:27:06.567Z,80.49
2019-04-30T09:28:08.553Z,79.80
2019-04-30T09:29:06.563Z,78.41
2019-04-30T09:30:06.542Z,79.66
2019-04-30T09:31:08.623Z,80.89
2019-04-30T09:32:06.527Z,79.73
2019-04-30T09:33:06.504Z,78.06
2019-04-30T09:34:15.268Z,78.88
2019-04-30T09:35:09.502Z,77.11
2019-04-30T09:36:06.463Z,77.11
2019-04-30T09:37:06.479Z,75.82
2019-04-30T09:38:06.443Z,77.55
2019-04-30T09:39:08.775Z,78.27
2019-04-30T09:40:16.278Z,76.53
2019-04-30T09:41:09.164Z,77.38
2019-04-30T09:42:06.401Z,78.30
2019-04-30T09:43:06.397Z,78.71
2019-04-30T09:44:06.381Z,80.00
2019-04-30T09:45:06.435Z,76.53
2019-04-30T09:46:19.045Z,77.08
2019-04-30T09:47:08.906Z,78.06
2019-04-30T09:48:06.341Z,76.73
2019-04-30T09:49:06.338Z,75.37
2019-04-30T09:50:06.326Z,72.45
2019-04-30T09:51:06.809Z,72.75
2019-04-30T09:52:06.341Z,75.51
2019-04-30T09:53:06.279Z,74.38
2019-04-30T09:54:06.907Z,72.41
2019-04-30T09:55:06.372Z,71.06
2019-04-30T09:56:06.273Z,72.82
2019-04-30T09:57:06.251Z,73.13
2019-04-30T09:58:16.295Z,70.35
2019-04-30T09:59:09.012Z,67.41
2019-04-30T10:00:06.209Z,64.78
2019-04-30T10:01:06.229Z,65.96
2019-04-30T10:02:06.191Z,68.84
2019-04-30T10:03:06.606Z,64.15
2019-04-30T10:04:06.684Z,65.09
2019-04-30T10:05:06.605Z,66.30
2019-04-30T10:06:06.148Z,68.08
2019-04-30T10:07:06.320Z,70.76
2019-04-30T10:08:06.126Z,70.59
2019-04-30T10:09:06.115Z,71.57
2019-04-30T10:10:08.861Z,72.38
2019-04-30T10:11:06.090Z,72.69
2019-04-30T10:12:06.136Z,74.76
2019-04-30T10:13:06.071Z,73.43
2019-04-30T10:14:06.072Z,72.75
2019-04-30T10:15:06.044Z,70.08
2019-04-30T10:16:06.040Z,68.35
2019-04-30T10:17:06.059Z,69.17
2019-04-30T10:18:06.027Z,65.79
2019-04-30T10:19:06.016Z,68.02
2019-04-30T10:20:05.991Z,64.58
2019-04-30T10:21:05.978Z,67.38
2019-04-30T10:22:05.998Z,67.18
2019-04-30T10:23:05.988Z,66.09
2019-04-30T10:24:13.144Z,65.99
2019-04-30T10:25:06.966Z,65.99
2019-04-30T10:26:05.950Z,64.95
2019-04-30T10:27:10.467Z,65.83
2019-04-30T10:28:06.928Z,63.95
2019-04-30T10:29:05.907Z,63.70
2019-04-30T10:30:05.890Z,66.97
2019-04-30T10:31:05.874Z,66.54
2019-04-30T10:32:05.878Z,65.90
2019-04-30T10:33:05.918Z,66.58
2019-04-30T10:34:05.870Z,67.52
2019-04-30T10:35:05.840Z,64.33
2019-04-30T10:36:05.848Z,63.75
2019-04-30T10:37:05.822Z,66.95
2019-04-30T10:38:05.838Z,62.90
2019-04-30T10:39:05.806Z,65.20
2019-04-30T10:40:05.806Z,65.24
2019-04-30T10:41:05.776Z,61.07
2019-04-30T10:42:05.758Z,61.71
2019-04-30T10:43:05.767Z,60.52
2019-04-30T10:44:05.749Z,63.28
2019-04-30T10:45:05.726Z,62.57
2019-04-30T10:46:05.747Z,66.55
2019-04-30T10:47:06.708Z,64.09
2019-04-30T10:48:05.756Z,66.85
2019-04-30T10:49:05.739Z,65.54
2019-04-30T10:50:05.727Z,63.13
2019-04-30T10:51:05.670Z,64.82
2019-04-30T10:52:05.653Z,66.57
2019-04-30T10:53:05.637Z,70.48
2019-04-30T10:54:05.659Z,68.70
2019-04-30T10:55:05.636Z,65.73
2019-04-30T10:56:05.635Z,66.27
2019-04-30T10:57:05.615Z,64.49
2019-04-30T10:58:05.640Z,66.88
2019-04-30T10:59:05.627Z,63.58
2019-04-30T11:00:07.769Z,65.19
2019-04-30T11:01:05.608Z,66.35
2019-04-30T11:02:05.555Z,64.03
2019-04-30T11:03:18.644Z,62.45
2019-04-30T11:04:06.579Z,62.45
2019-04-30T11:05:05.520Z,63.15
2019-04-30T11:06:05.500Z,64.64
2019-04-30T11:07:05.490Z,63.32
2019-04-30T11:08:05.477Z,61.83
2019-04-30T11:09:05.459Z,62.95
2019-04-30T11:10:05.490Z,64.52
2019-04-30T11:11:05.450Z,65.98
2019-04-30T11:12:05.443Z,64.81
2019-04-30T11:13:05.430Z,63.13
2019-04-30T11:14:05.415Z,61.41
2019-04-30T11:15:05.427Z,60.06
2019-04-30T11:16:12.546Z,60.32
2019-04-30T11:17:06.745Z,62.44
2019-04-30T11:18:05.582Z,64.90
2019-04-30T11:19:05.591Z,62.29
2019-04-30T11:20:05.582Z,59.57
2019-04-30T11:21:05.543Z,61.32
2019-04-30T11:22:05.543Z,64.27
2019-04-30T11:23:14.272Z,61.68
2019-04-30T11:24:06.501Z,63.76
2019-04-30T11:25:05.470Z,62.12
2019-04-30T11:26:05.891Z,66.27
2019-04-30T11:27:05.749Z,66.41
2019-04-30T11:28:08.589Z,65.29
2019-04-30T11:29:05.463Z,65.59
2019-04-30T11:30:17.816Z,69.42
2019-04-30T11:31:06.425Z,64.95
2019-04-30T11:32:05.459Z,60.78
2019-04-30T11:33:05.449Z,60.58
2019-04-30T11:34:05.207Z,61.59
2019-04-30T11:35:05.188Z,62.63
2019-04-30T11:36:05.216Z,63.09
2019-04-30T11:37:05.187Z,61.76
2019-04-30T11:38:05.157Z,60.39
2019-04-30T11:39:05.148Z,59.45
2019-04-30T11:40:05.159Z,59.80
2019-04-30T11:41:05.127Z,59.09
2019-04-30T11:42:05.148Z,57.05
2019-04-30T11:43:05.089Z,60.94
2019-04-30T11:44:05.097Z,59.69
2019-04-30T11:45:05.077Z,62.71
2019-04-30T11:46:05.069Z,61.10
2019-04-30T11:47:05.100Z,61.92
2019-04-30T11:48:05.071Z,60.03
2019-04-30T11:49:05.059Z,60.24
2019-04-30T11:50:05.034Z,60.71
2019-04-30T11:51:05.024Z,58.89
2019-04-30T11:52:05.039Z,61.55
2019-04-30T11:53:19.499Z,60.77
2019-04-30T11:54:05.987Z,63.87
2019-04-30T11:55:04.997Z,64.84
2019-04-30T11:56:04.969Z,62.93
2019-04-30T11:57:04.969Z,61.21
2019-04-30T11:58:04.983Z,62.60
2019-04-30T11:59:04.939Z,60.15
2019-04-30T12:00:04.941Z,62.26
2019-04-30T12:01:04.927Z,59.14
2019-04-30T12:02:04.910Z,61.05
2019-04-30T12:03:04.893Z,57.23
2019-04-30T12:04:04.921Z,58.52
2019-04-30T12:05:05.298Z,59.83
2019-04-30T12:06:04.863Z,60.31
2019-04-30T12:07:04.880Z,59.14
2019-04-30T12:08:04.853Z,56.60
2019-04-30T12:09:04.876Z,63.31
2019-04-30T12:10:04.868Z,56.87
2019-04-30T12:11:04.806Z,57.65
2019-04-30T12:12:04.798Z,62.37
2019-04-30T12:13:05.745Z,58.71
2019-04-30T12:14:04.794Z,63.68
2019-04-30T12:15:04.788Z,59.80
2019-04-30T12:16:04.820Z,56.38
2019-04-30T12:17:04.767Z,56.14
2019-04-30T12:18:04.734Z,57.78
2019-04-30T12:19:04.739Z,57.30
2019-04-30T12:20:04.771Z,56.09
2019-04-30T12:21:04.712Z,53.58
2019-04-30T12:22:04.754Z,53.00
2019-04-30T12:23:04.687Z,56.95
2019-04-30T12:24:04.674Z,54.81
2019-04-30T12:25:05.488Z,53.90
2019-04-30T12:26:04.684Z,54.43
2019-04-30T12:27:04.652Z,56.15
2019-04-30T12:28:04.674Z,54.30
2019-04-30T12:29:04.620Z,53.88
2019-04-30T12:30:04.631Z,54.55
2019-04-30T12:31:06.006Z,55.06
2019-04-30T12:32:04.593Z,54.30
2019-04-30T12:33:04.661Z,55.84
2019-04-30T12:34:04.569Z,56.04
2019-04-30T12:35:04.539Z,57.93
2019-04-30T12:36:06.464Z,55.23
2019-04-30T12:37:04.542Z,55.21
2019-04-30T12:38:04.538Z,51.97
2019-04-30T12:39:04.516Z,51.56
2019-04-30T12:40:04.506Z,54.08
2019-04-30T12:41:04.485Z,57.50
2019-04-30T12:42:04.468Z,56.04
2019-04-30T12:43:04.520Z,53.97
2019-04-30T12:44:04.502Z,53.55
2019-04-30T12:45:04.461Z,55.41
2019-04-30T12:46:05.552Z,54.30
2019-04-30T12:47:04.414Z,49.12
2019-04-30T12:48:04.399Z,52.26
2019-04-30T12:49:04.419Z,53.58
2019-04-30T12:50:04.378Z,53.05
2019-04-30T12:51:04.386Z,51.56
2019-04-30T12:52:04.355Z,52.74